Bosworth, MO

6:52 AM CDT on October 02, 2014 (GMT -0500)
Barlow Back Yard | Change Station
CLOSE
Current Station
Personal Weather Station
Location: Hale, MO
Elevation: 755 ft
Nearby Weather Stations

Elev 755 ft 39.59 °N, 93.30 °W | Updated 13 minutes ago

Overcast
Overcast
63.3 °F
Feels Like 63.3 °F
N
4.2
Wind Variable Wind from SE

Today
High -- | Low -- °F
--% Chance of Precip.
Yesterday
High -- | Low -- °F
Precip. -- in
7:10 AM 6:54 PM
First Quarter, 58% visible
Pressure 29.82 in
Visibility 10.0 miles
Clouds Scattered Clouds 4600 ft
Mostly Cloudy 5000 ft
Mostly Cloudy 7000 ft
Dew Point 63 °F
Humidity 98%
Rainfall 0.23 in
Snow Depth Not available.
UV 0 out of 12
Pollen .50 out of 12
Air Quality Not available.
Flu Activity Not available.
METAR KVER 011215Z AUTO 14008KT 10SM SCT046 BKN050 BKN070 18/13 A2982 RMK AO2 LTG DSNT SW AND NW T01830126

More Conditions Fewer Conditions

Pressure 29.82 in
Visibility 10.0 miles
Clouds Scattered Clouds 4600 ft
Mostly Cloudy 5000 ft
Mostly Cloudy 7000 ft
Dew Point 63 °F
Humidity 98%
Rainfall 0.23 in
Snow Depth Not available.
UV 0 out of 12
Pollen .50 out of 12
Air Quality Not available.
Flu Activity Not available.
METAR KVER 011215Z AUTO 14008KT 10SM SCT046 BKN050 BKN070 18/13 A2982 RMK AO2 LTG DSNT SW AND NW T01830126

More Conditions Fewer Conditions

10-Day Weather Forecast

Almanac

Astronomy

Oct. 02, 2014 Rise Set
Actual Time 7:10 AM CDT 6:54 PM CDT
Civil Twilight 6:43 AM CDT 7:20 PM CDT
Nautical Twilight 6:12 AM CDT 7:52 PM CDT
Astronomical Twilight 5:41 AM CDT 8:23 PM CDT
Moon 2:59 PM CDT 12:29 AM CDT
Length of Visible Light 12h 37m
Length of Day
11h 43m
Tomorrow will be 2m 34s shorter.
First Quarter, 58% of the Moon is Illuminated
Today
First Quarter
Oct 8
Full
Oct 15
Last Quarter
Oct 23
New
Oct 30
First Quarter

Today's Extremes

State Highs State Lows

Community

WunderPhotos

Upload Photos

1,758,221 photos uploaded!

WunderBlogs® & News

Nearby

Snow Depth

Station Depth Elevation
No new snow has been reported.

Earthquake Activity

City Distance Mag. Time & Date
No recent earthquake activity has been reported nearby.
Minimum magnitude displayed is 2.5.

Coastal Water Temperatures

Place Temperature
No Stations Reporting

Nearby Weather Stations